Time;durP1;ratioP1;P1;durP2;ratioP2;P2;SDS_P1;SDS_P2;PMS_P1;PMS_P2;Temp;Humidity;BMP_temperature;BMP_pressure;BME280_temperature;BME280_humidity;BME280_pressure;Samples;Min_cycle;Max_cycle;Signal;HPM_P1;HPM_P2
2023/06/29 00:01:10;;;;;;;1.20;1.10;;;12.30;60.40;;;;;;4990144;28;20271;-67
2023/06/29 00:03:38;;;;;;;2.63;1.10;;;12.30;60.10;;;;;;4991886;28;20217;-66
2023/06/29 00:06:05;;;;;;;1.40;1.30;;;12.40;60.70;;;;;;4990950;28;20662;-66
2023/06/29 00:08:36;;;;;;;1.73;1.20;;;12.50;60.40;;;;;;4987864;28;20333;-67
2023/06/29 00:11:04;;;;;;;1.20;1.10;;;12.50;59.60;;;;;;4992109;28;20182;-67
2023/06/29 00:13:31;;;;;;;1.30;1.20;;;12.60;58.60;;;;;;4984172;28;20676;-67
2023/06/29 00:16:00;;;;;;;1.37;1.30;;;12.50;57.50;;;;;;4990484;28;20260;-66
2023/06/29 00:18:28;;;;;;;3.40;1.10;;;12.50;57.80;;;;;;4973372;28;20273;-67
2023/06/29 00:20:57;;;;;;;1.47;1.20;;;12.70;57.90;;;;;;4991421;28;20244;-67
2023/06/29 00:23:26;;;;;;;1.20;1.10;;;12.80;58.60;;;;;;4989943;28;20558;-68
2023/06/29 00:25:57;;;;;;;1.30;1.20;;;12.80;58.00;;;;;;4988413;28;20237;-69
2023/06/29 00:28:24;;;;;;;1.23;1.03;;;12.90;57.00;;;;;;4992331;28;20193;-67
2023/06/29 00:30:51;;;;;;;1.20;1.10;;;13.00;56.90;;;;;;4991917;28;20182;-67
2023/06/29 00:33:19;;;;;;;3.07;1.10;;;13.20;57.30;;;;;;4994412;28;20189;-67
2023/06/29 00:35:46;;;;;;;1.00;1.00;;;13.20;56.50;;;;;;4990982;28;20236;-68
2023/06/29 00:38:13;;;;;;;2.33;1.10;;;13.20;56.10;;;;;;4990021;28;20209;-67
2023/06/29 00:40:41;;;;;;;1.20;1.10;;;13.30;56.20;;;;;;4991890;28;20228;-69
2023/06/29 00:43:08;;;;;;;1.00;0.90;;;13.20;53.80;;;;;;4989464;28;20225;-68
2023/06/29 00:45:35;;;;;;;3.00;1.10;;;13.10;54.50;;;;;;4992601;28;20285;-72
2023/06/29 00:48:03;;;;;;;2.10;1.20;;;13.20;54.00;;;;;;4991315;28;20186;-68
2023/06/29 00:50:30;;;;;;;1.27;1.17;;;13.20;54.80;;;;;;4990064;28;20182;-70
2023/06/29 00:52:57;;;;;;;2.70;1.10;;;13.30;54.80;;;;;;4991517;28;20241;-67
2023/06/29 00:55:25;;;;;;;1.30;1.20;;;13.40;54.30;;;;;;4985215;28;20293;-68
2023/06/29 00:57:52;;;;;;;1.83;1.20;;;13.40;54.40;;;;;;4985512;28;20200;-68
2023/06/29 01:00:20;;;;;;;0.80;0.80;;;13.60;54.60;;;;;;4986827;28;20225;-69
2023/06/29 01:02:48;;;;;;;3.50;1.20;;;13.70;53.80;;;;;;4988639;28;20249;-67
2023/06/29 01:05:16;;;;;;;1.00;1.00;;;13.70;53.70;;;;;;4989329;28;20186;-67
2023/06/29 01:07:46;;;;;;;1.73;1.10;;;13.80;53.70;;;;;;4991039;28;20664;-68
2023/06/29 01:10:15;;;;;;;3.77;1.50;;;13.80;53.40;;;;;;4988531;28;20261;-67
2023/06/29 01:12:43;;;;;;;1.73;1.10;;;13.90;52.90;;;;;;4989945;28;20641;-67
2023/06/29 01:15:11;;;;;;;1.50;1.00;;;14.10;53.00;;;;;;4989097;28;20182;-67
2023/06/29 01:17:40;;;;;;;1.10;0.93;;;14.10;51.90;;;;;;4991167;28;20211;-67
2023/06/29 01:20:13;;;;;;;1.97;1.00;;;14.20;51.60;;;;;;4989555;28;20580;-67
2023/06/29 01:22:59;;;;;;;1.10;1.00;;;14.00;51.20;;;;;;4990356;28;20583;-67
2023/06/29 01:25:28;;;;;;;1.13;0.83;;;14.30;50.90;;;;;;4984462;28;20337;-68
2023/06/29 01:27:55;;;;;;;1.10;1.00;;;14.40;50.60;;;;;;4991209;28;20185;-67
2023/06/29 01:30:23;;;;;;;0.90;0.90;;;14.50;48.90;;;;;;4989453;28;20181;-69
2023/06/29 01:32:50;;;;;;;1.90;0.93;;;14.70;49.10;;;;;;4989298;28;20186;-69
2023/06/29 01:35:18;;;;;;;1.57;1.10;;;14.80;46.80;;;;;;4991372;28;20198;-68
2023/06/29 01:38:07;;;;;;;1.27;1.00;;;14.80;47.30;;;;;;4990649;28;20186;-68
2023/06/29 01:40:36;;;;;;;1.77;0.73;;;14.80;47.70;;;;;;4988327;28;20660;-67
2023/06/29 01:43:04;;;;;;;1.00;0.87;;;15.00;46.10;;;;;;4981752;28;20217;-66
2023/06/29 01:45:34;;;;;;;1.23;0.80;;;14.70;45.40;;;;;;4988557;28;20522;-67
2023/06/29 01:48:01;;;;;;;0.80;0.80;;;14.60;45.30;;;;;;4988974;28;20648;-67
2023/06/29 01:50:29;;;;;;;1.17;1.00;;;14.60;45.60;;;;;;4990630;28;20268;-67
2023/06/29 01:52:57;;;;;;;0.70;0.70;;;14.80;45.50;;;;;;4988744;28;20194;-66
2023/06/29 01:55:25;;;;;;;2.63;0.80;;;15.00;45.50;;;;;;4990058;28;20186;-67
2023/06/29 01:57:52;;;;;;;1.10;0.87;;;15.10;45.00;;;;;;4987040;28;20186;-67
2023/06/29 02:00:20;;;;;;;0.70;0.70;;;15.20;44.90;;;;;;4988781;28;20719;-67
2023/06/29 02:02:48;;;;;;;1.00;0.80;;;14.90;44.70;;;;;;4990862;28;20221;-68
2023/06/29 02:05:15;;;;;;;1.57;0.90;;;15.10;44.30;;;;;;4989735;28;20205;-66
2023/06/29 02:07:43;;;;;;;0.93;0.80;;;15.30;44.50;;;;;;4989043;28;20178;-67
2023/06/29 02:10:10;;;;;;;1.97;0.83;;;15.40;44.00;;;;;;4989446;28;20195;-68
2023/06/29 02:12:40;;;;;;;0.87;0.87;;;15.60;42.90;;;;;;4991343;28;20194;-69
2023/06/29 02:15:08;;;;;;;2.07;1.00;;;15.60;42.80;;;;;;4989527;28;20285;-67
2023/06/29 02:17:35;;;;;;;1.07;0.80;;;15.60;42.70;;;;;;4992031;28;20583;-68
2023/06/29 02:20:03;;;;;;;3.23;0.90;;;15.30;42.80;;;;;;4988628;28;20182;-66
2023/06/29 02:22:30;;;;;;;1.53;0.97;;;15.50;43.00;;;;;;4990746;28;20205;-66
2023/06/29 02:24:57;;;;;;;1.63;1.00;;;15.50;43.20;;;;;;4988395;28;20189;-66
2023/06/29 02:27:25;;;;;;;2.87;0.70;;;15.80;43.10;;;;;;4988222;28;20237;-67
2023/06/29 02:29:52;;;;;;;0.70;0.70;;;15.80;41.50;;;;;;4988912;28;20186;-66
2023/06/29 02:32:19;;;;;;;0.60;0.60;;;15.70;42.20;;;;;;4990199;28;20210;-66
2023/06/29 02:34:47;;;;;;;1.00;0.90;;;15.60;42.30;;;;;;4985925;28;20220;-67
2023/06/29 02:37:14;;;;;;;0.80;0.80;;;15.70;43.40;;;;;;4988426;28;20646;-67
2023/06/29 02:39:41;;;;;;;0.87;0.87;;;15.80;44.00;;;;;;4987672;28;20205;-69
2023/06/29 02:42:08;;;;;;;1.07;0.70;;;15.80;42.50;;;;;;4990160;28;20216;-68
2023/06/29 02:44:36;;;;;;;1.03;0.90;;;15.70;42.10;;;;;;4990363;28;20255;-67
2023/06/29 02:47:03;;;;;;;3.70;1.43;;;15.40;42.30;;;;;;4989660;28;20250;-67
2023/06/29 02:49:31;;;;;;;1.50;0.87;;;15.00;43.80;;;;;;4989691;28;20178;-66
2023/06/29 02:51:58;;;;;;;2.53;0.80;;;14.60;45.00;;;;;;4989937;28;20178;-65
2023/06/29 02:54:25;;;;;;;0.80;0.80;;;14.70;45.50;;;;;;4990778;28;20206;-67
2023/06/29 02:56:52;;;;;;;0.80;0.77;;;15.00;44.80;;;;;;4990982;28;20186;-68
2023/06/29 02:59:21;;;;;;;0.83;0.73;;;15.10;43.40;;;;;;4989862;28;20178;-67
2023/06/29 03:01:48;;;;;;;2.33;0.80;;;15.30;43.00;;;;;;4991187;28;20232;-67
2023/06/29 03:04:15;;;;;;;1.00;0.87;;;15.10;42.10;;;;;;4992408;28;20209;-67
2023/06/29 03:06:42;;;;;;;0.83;0.83;;;15.30;42.90;;;;;;4992828;28;20246;-66
2023/06/29 03:09:10;;;;;;;1.20;0.80;;;15.50;41.70;;;;;;4991115;28;20187;-67
2023/06/29 03:11:37;;;;;;;1.80;1.00;;;15.60;41.90;;;;;;4993074;28;20190;-68
2023/06/29 03:14:04;;;;;;;3.33;0.90;;;15.60;41.70;;;;;;4990849;28;20222;-67
2023/06/29 03:16:32;;;;;;;0.80;0.80;;;15.50;42.40;;;;;;4989547;28;20186;-68
2023/06/29 03:18:59;;;;;;;0.70;0.70;;;15.60;42.60;;;;;;4990505;28;20236;-67
2023/06/29 03:21:26;;;;;;;0.90;0.90;;;15.20;42.40;;;;;;4994190;28;20186;-68
2023/06/29 03:23:54;;;;;;;1.20;0.80;;;15.30;42.00;;;;;;4992404;28;20218;-66
2023/06/29 03:26:21;;;;;;;1.50;0.90;;;15.30;39.70;;;;;;4994376;28;20267;-67
2023/06/29 03:28:48;;;;;;;2.90;0.90;;;15.50;39.80;;;;;;4988863;28;20182;-68
2023/06/29 03:31:15;;;;;;;0.80;0.80;;;15.80;39.70;;;;;;4994426;28;20176;-67
2023/06/29 03:33:44;;;;;;;1.10;0.87;;;16.20;39.90;;;;;;4991728;28;20178;-66
2023/06/29 03:36:12;;;;;;;1.47;0.80;;;16.30;39.10;;;;;;4987305;28;20718;-66
2023/06/29 03:38:39;;;;;;;0.67;0.60;;;16.40;38.90;;;;;;4991638;28;20340;-67
2023/06/29 03:41:07;;;;;;;1.33;1.07;;;16.70;38.80;;;;;;4993200;28;20248;-66
2023/06/29 03:43:34;;;;;;;1.40;0.70;;;17.00;39.80;;;;;;4991018;28;20297;-67
2023/06/29 03:46:02;;;;;;;1.30;0.80;;;17.20;38.00;;;;;;4992286;28;20212;-67
2023/06/29 03:48:29;;;;;;;1.07;0.73;;;17.30;38.80;;;;;;4991133;28;20651;-67
2023/06/29 03:50:58;;;;;;;1.40;0.60;;;17.00;38.30;;;;;;4995366;28;20200;-67
2023/06/29 03:53:25;;;;;;;0.77;0.77;;;17.20;38.10;;;;;;4991726;28;20245;-66
2023/06/29 03:55:53;;;;;;;0.60;0.60;;;17.70;37.20;;;;;;4993526;28;20170;-66
2023/06/29 03:58:20;;;;;;;1.30;0.60;;;17.70;37.40;;;;;;4991617;28;20186;-69
2023/06/29 04:00:47;;;;;;;1.57;0.70;;;18.20;36.60;;;;;;4990161;28;20182;-67
2023/06/29 04:03:14;;;;;;;4.30;0.90;;;17.60;37.20;;;;;;4988985;28;20237;-67
2023/06/29 04:05:43;;;;;;;2.30;0.60;;;18.00;36.90;;;;;;4990071;28;20182;-67
2023/06/29 04:08:11;;;;;;;5.80;1.00;;;17.80;36.70;;;;;;4982806;28;20738;-66
2023/06/29 04:10:38;;;;;;;1.30;0.90;;;17.80;37.20;;;;;;4987128;28;20206;-67
2023/06/29 04:13:05;;;;;;;2.53;0.80;;;18.30;37.40;;;;;;4990460;28;20190;-68
2023/06/29 04:15:33;;;;;;;0.67;0.67;;;18.30;36.50;;;;;;4987629;28;20635;-65
2023/06/29 04:18:00;;;;;;;1.47;0.70;;;18.30;36.40;;;;;;4990773;28;20265;-67
2023/06/29 04:20:28;;;;;;;1.57;0.67;;;18.70;35.60;;;;;;4988632;28;20186;-67
2023/06/29 04:22:56;;;;;;;0.60;0.50;;;18.80;35.40;;;;;;4990440;28;20312;-68
2023/06/29 04:25:23;;;;;;;0.50;0.50;;;18.50;34.50;;;;;;4993419;28;20200;-69
2023/06/29 04:27:51;;;;;;;2.30;0.60;;;17.90;35.50;;;;;;4988522;28;20182;-67
2023/06/29 04:30:18;;;;;;;1.70;0.60;;;18.30;35.40;;;;;;4987052;28;20186;-71
2023/06/29 04:32:49;;;;;;;2.27;0.63;;;18.80;34.60;;;;;;4993462;28;20193;-68
2023/06/29 04:35:17;;;;;;;10.90;1.40;;;18.80;34.00;;;;;;4993356;28;20628;-68
2023/06/29 04:37:44;;;;;;;2.17;0.80;;;18.40;34.70;;;;;;4990524;28;20189;-68
2023/06/29 04:40:14;;;;;;;0.87;0.77;;;18.30;34.30;;;;;;4993491;28;20192;-69
2023/06/29 04:42:45;;;;;;;0.60;0.60;;;18.40;34.50;;;;;;4989572;28;20221;-69
2023/06/29 04:45:19;;;;;;;0.70;0.57;;;18.20;35.10;;;;;;4989233;28;20332;-67
2023/06/29 04:47:50;;;;;;;0.80;0.60;;;18.50;35.20;;;;;;4985975;28;20241;-67
2023/06/29 04:50:31;;;;;;;0.80;0.70;;;18.80;34.50;;;;;;4989130;28;20601;-67
2023/06/29 04:53:05;;;;;;;1.13;0.70;;;19.00;34.50;;;;;;4987843;28;20182;-69
2023/06/29 04:55:33;;;;;;;0.50;0.50;;;19.20;33.70;;;;;;4991556;28;20213;-69
2023/06/29 04:58:00;;;;;;;1.03;0.60;;;18.70;34.70;;;;;;4989552;28;21019;-68
2023/06/29 05:00:28;;;;;;;0.70;0.60;;;18.50;34.80;;;;;;4987420;28;20206;-67
2023/06/29 05:02:55;;;;;;;0.60;0.60;;;18.30;35.30;;;;;;4988460;28;20233;-68
2023/06/29 05:05:22;;;;;;;0.60;0.60;;;18.80;34.70;;;;;;4991434;28;20181;-67
2023/06/29 05:07:50;;;;;;;1.20;0.67;;;18.90;34.50;;;;;;4988847;28;20221;-69
2023/06/29 05:10:18;;;;;;;0.60;0.60;;;19.30;33.50;;;;;;4988882;28;20192;-67
2023/06/29 05:12:45;;;;;;;0.60;0.60;;;19.10;33.80;;;;;;4988935;28;20190;-67
2023/06/29 05:15:13;;;;;;;1.30;0.70;;;18.70;34.80;;;;;;4990046;28;20260;-72
2023/06/29 05:17:40;;;;;;;1.37;0.80;;;18.70;34.80;;;;;;4990797;28;20552;-69
2023/06/29 05:20:08;;;;;;;0.70;0.60;;;18.60;35.20;;;;;;4989952;28;20185;-69
2023/06/29 05:22:36;;;;;;;1.00;0.60;;;18.60;35.40;;;;;;4990912;28;20284;-68
2023/06/29 05:25:03;;;;;;;0.70;0.70;;;18.70;34.70;;;;;;4989825;28;20196;-68
2023/06/29 05:27:31;;;;;;;1.07;0.73;;;18.20;35.10;;;;;;4992086;28;20559;-70
2023/06/29 05:29:58;;;;;;;0.70;0.63;;;18.60;34.70;;;;;;4974350;28;20189;-71
2023/06/29 05:32:26;;;;;;;2.87;0.73;;;18.80;34.80;;;;;;4991562;28;20186;-70
2023/06/29 05:34:54;;;;;;;3.53;0.67;;;18.70;34.50;;;;;;4989765;28;20272;-71
2023/06/29 05:37:21;;;;;;;1.33;0.80;;;18.80;34.70;;;;;;4987545;28;20309;-70
2023/06/29 05:39:49;;;;;;;1.33;0.70;;;18.90;34.80;;;;;;4989446;28;20197;-68
2023/06/29 05:42:16;;;;;;;2.17;0.80;;;18.90;34.40;;;;;;4989612;28;20210;-67
2023/06/29 05:44:43;;;;;;;0.87;0.80;;;19.20;34.20;;;;;;4981815;28;20234;-67
2023/06/29 05:47:11;;;;;;;0.70;0.67;;;18.80;34.50;;;;;;4990489;28;20590;-70
2023/06/29 05:49:38;;;;;;;1.27;0.70;;;18.50;34.60;;;;;;4990736;28;20555;-68
2023/06/29 05:52:06;;;;;;;1.00;0.70;;;19.10;34.40;;;;;;4988969;28;20186;-68
2023/06/29 05:54:33;;;;;;;1.23;0.73;;;18.80;34.60;;;;;;4991163;28;20201;-68
2023/06/29 05:57:01;;;;;;;1.37;0.77;;;18.40;35.00;;;;;;4990099;28;20201;-68
2023/06/29 05:59:29;;;;;;;2.63;0.80;;;18.30;35.00;;;;;;4989387;28;20193;-67
2023/06/29 06:01:57;;;;;;;2.20;0.90;;;18.10;35.00;;;;;;4989971;28;20189;-68
2023/06/29 06:04:24;;;;;;;2.23;0.80;;;17.80;36.10;;;;;;4991066;28;20199;-71
2023/06/29 06:06:52;;;;;;;2.33;0.73;;;17.90;35.30;;;;;;4988603;28;20182;-68
2023/06/29 06:09:19;;;;;;;2.90;0.70;;;16.80;37.00;;;;;;4991507;28;20265;-68
2023/06/29 06:11:47;;;;;;;1.43;0.70;;;15.90;38.70;;;;;;4989857;28;20197;-68
2023/06/29 06:14:14;;;;;;;1.23;0.67;;;15.50;39.50;;;;;;4990206;28;20248;-69
2023/06/29 06:16:41;;;;;;;2.63;0.80;;;15.40;40.10;;;;;;4990351;28;20186;-68
2023/06/29 06:19:08;;;;;;;1.53;0.90;;;15.20;40.70;;;;;;4989058;28;20186;-70
2023/06/29 06:21:36;;;;;;;2.03;0.80;;;15.00;40.80;;;;;;4989887;28;20740;-68
2023/06/29 06:24:04;;;;;;;1.70;0.87;;;14.90;41.30;;;;;;4988423;28;20218;-67
2023/06/29 06:26:31;;;;;;;1.03;0.90;;;14.80;42.00;;;;;;4972605;28;20182;-68
2023/06/29 06:28:58;;;;;;;1.10;0.70;;;14.80;41.80;;;;;;4989842;28;20523;-70
2023/06/29 06:31:26;;;;;;;2.77;1.20;;;14.60;42.00;;;;;;4989135;28;20589;-68
2023/06/29 06:33:56;;;;;;;1.90;1.30;;;14.50;42.40;;;;;;4989829;28;20190;-67
2023/06/29 06:36:29;;;;;;;1.47;1.10;;;14.30;42.30;;;;;;4989899;28;20671;-67
2023/06/29 06:38:56;;;;;;;2.80;1.00;;;14.30;43.30;;;;;;4993589;28;20189;-66
2023/06/29 06:41:23;;;;;;;1.73;0.80;;;14.20;43.60;;;;;;4988840;28;20192;-67
2023/06/29 06:43:51;;;;;;;1.40;1.10;;;14.00;43.60;;;;;;4990010;28;20229;-68
2023/06/29 06:46:18;;;;;;;1.30;0.93;;;13.90;44.30;;;;;;4993546;28;20657;-67
2023/06/29 06:48:47;;;;;;;1.10;1.00;;;13.80;43.80;;;;;;4991158;28;20292;-67
2023/06/29 06:51:15;;;;;;;2.80;1.00;;;13.70;43.50;;;;;;4994136;28;20178;-66
2023/06/29 06:53:42;;;;;;;1.10;1.03;;;13.60;43.90;;;;;;4996121;28;20772;-67
2023/06/29 06:56:10;;;;;;;2.33;1.10;;;13.50;43.90;;;;;;4994245;28;20494;-67
2023/06/29 06:58:37;;;;;;;1.37;1.00;;;13.50;43.90;;;;;;4989048;28;20714;-67
2023/06/29 07:01:04;;;;;;;1.97;0.90;;;13.40;44.20;;;;;;4992374;28;20200;-68
2023/06/29 07:03:32;;;;;;;1.67;1.00;;;13.30;44.60;;;;;;4991133;28;20672;-66
2023/06/29 07:05:59;;;;;;;3.10;1.40;;;13.30;44.90;;;;;;4971250;28;20317;-68
2023/06/29 07:08:32;;;;;;;5.07;1.00;;;13.20;45.30;;;;;;4993076;28;20216;-69
2023/06/29 07:10:59;;;;;;;2.83;1.10;;;13.10;45.60;;;;;;4989790;28;20186;-67
2023/06/29 07:13:26;;;;;;;3.43;1.17;;;13.00;45.80;;;;;;4991011;28;20548;-68
2023/06/29 07:15:55;;;;;;;2.90;1.10;;;13.00;46.10;;;;;;4990172;28;20271;-68
2023/06/29 07:18:22;;;;;;;1.30;1.10;;;12.90;46.50;;;;;;4992180;28;20186;-68
2023/06/29 07:20:50;;;;;;;1.50;1.20;;;12.80;46.50;;;;;;4992253;28;20244;-66
2023/06/29 07:23:18;;;;;;;5.73;1.30;;;12.80;47.60;;;;;;4991738;28;20214;-68
2023/06/29 07:25:45;;;;;;;3.30;1.40;;;12.80;47.50;;;;;;4992560;28;20313;-67
2023/06/29 07:28:13;;;;;;;3.43;1.20;;;12.80;48.00;;;;;;4994254;28;20185;-70
2023/06/29 07:30:40;;;;;;;2.17;1.30;;;12.70;47.80;;;;;;4989146;28;20186;-68
2023/06/29 07:33:08;;;;;;;6.63;2.30;;;12.60;48.10;;;;;;4993459;28;20190;-67
2023/06/29 07:35:35;;;;;;;3.47;2.43;;;12.60;48.30;;;;;;4990785;28;20532;-69
2023/06/29 07:38:02;;;;;;;2.23;1.70;;;12.60;48.40;;;;;;4993062;28;20178;-66
2023/06/29 07:40:29;;;;;;;3.93;2.57;;;12.50;48.10;;;;;;4988311;28;20189;-66
2023/06/29 07:42:57;;;;;;;2.60;1.90;;;12.50;48.80;;;;;;4994015;28;20678;-67
2023/06/29 07:45:24;;;;;;;2.40;1.57;;;12.30;49.00;;;;;;4989728;28;20553;-69
2023/06/29 07:47:52;;;;;;;2.80;1.50;;;12.30;49.40;;;;;;4990027;28;20197;-66
2023/06/29 07:50:19;;;;;;;3.17;1.40;;;12.30;48.90;;;;;;4990242;28;20265;-67
2023/06/29 07:52:47;;;;;;;1.73;1.50;;;12.30;49.40;;;;;;4991224;28;20613;-67
2023/06/29 07:55:14;;;;;;;1.97;1.47;;;12.20;49.60;;;;;;4991838;28;20193;-66
2023/06/29 07:57:41;;;;;;;2.20;1.80;;;12.20;50.00;;;;;;4993689;28;20675;-67
2023/06/29 08:00:09;;;;;;;2.80;1.93;;;12.10;50.50;;;;;;4993914;28;20212;-66
2023/06/29 08:02:37;;;;;;;4.20;2.50;;;12.10;50.80;;;;;;4989802;28;20308;-66
2023/06/29 08:05:04;;;;;;;4.00;1.90;;;12.00;50.80;;;;;;4990780;28;20201;-70
2023/06/29 08:07:33;;;;;;;2.77;1.67;;;11.80;50.90;;;;;;4993168;28;20642;-67
2023/06/29 08:10:00;;;;;;;3.90;1.70;;;11.80;51.20;;;;;;4992337;28;20201;-66
2023/06/29 08:12:28;;;;;;;3.43;1.80;;;11.70;51.40;;;;;;4989640;28;20197;-67
2023/06/29 08:14:55;;;;;;;4.17;1.97;;;11.70;51.90;;;;;;4991067;28;20194;-68
2023/06/29 08:17:22;;;;;;;5.37;2.10;;;11.70;51.70;;;;;;4993210;28;20240;-66
2023/06/29 08:19:50;;;;;;;3.07;2.17;;;11.70;52.10;;;;;;4991569;28;20212;-69
2023/06/29 08:22:17;;;;;;;4.47;2.20;;;11.60;51.90;;;;;;4991710;28;20215;-68
2023/06/29 08:24:44;;;;;;;6.17;2.37;;;11.60;52.10;;;;;;4992975;28;20196;-69
2023/06/29 08:27:11;;;;;;;5.73;2.33;;;11.50;52.30;;;;;;4992659;28;20220;-70
2023/06/29 08:29:42;;;;;;;3.50;1.90;;;11.50;52.20;;;;;;4993543;28;20177;-69
2023/06/29 08:32:09;;;;;;;2.67;2.20;;;11.50;52.80;;;;;;4991737;28;20209;-67
2023/06/29 08:34:37;;;;;;;4.77;2.37;;;11.40;52.70;;;;;;4992573;28;20251;-70
2023/06/29 08:37:04;;;;;;;5.57;3.00;;;11.30;52.80;;;;;;4989406;28;20664;-68
2023/06/29 08:39:32;;;;;;;5.40;2.57;;;11.30;52.80;;;;;;4991143;28;20182;-67
2023/06/29 08:41:59;;;;;;;3.17;1.80;;;11.30;53.40;;;;;;4992055;28;20190;-68
2023/06/29 08:44:26;;;;;;;2.63;2.30;;;11.20;53.30;;;;;;4989355;28;20225;-68
2023/06/29 08:46:55;;;;;;;3.33;1.83;;;11.20;53.80;;;;;;4991985;28;20209;-67
2023/06/29 08:49:23;;;;;;;4.50;1.90;;;11.20;54.20;;;;;;4992150;28;20682;-67
2023/06/29 08:51:55;;;;;;;2.30;1.60;;;11.10;54.70;;;;;;4991786;28;20185;-67
2023/06/29 08:54:23;;;;;;;3.27;1.77;;;11.00;54.90;;;;;;4992700;28;20181;-67
2023/06/29 08:56:52;;;;;;;3.20;1.90;;;10.90;55.30;;;;;;4975307;28;20185;-67
2023/06/29 08:59:20;;;;;;;3.10;2.23;;;11.00;55.70;;;;;;4991800;28;20192;-68
2023/06/29 09:01:48;;;;;;;3.00;2.10;;;10.90;55.50;;;;;;4991887;28;20231;-67
2023/06/29 09:04:16;;;;;;;6.20;2.37;;;10.80;55.60;;;;;;4992254;28;20257;-68
2023/06/29 09:06:43;;;;;;;2.83;2.20;;;10.70;56.00;;;;;;4991666;28;20186;-67
2023/06/29 09:09:11;;;;;;;3.90;2.10;;;10.70;56.20;;;;;;4988676;28;20200;-68
2023/06/29 09:11:38;;;;;;;3.27;2.10;;;10.70;55.80;;;;;;4991013;28;20659;-69
2023/06/29 09:14:07;;;;;;;2.30;1.93;;;10.70;55.50;;;;;;4988104;28;20186;-68
2023/06/29 09:16:35;;;;;;;2.60;1.97;;;10.70;55.70;;;;;;4989201;28;20189;-69
2023/06/29 09:19:04;;;;;;;5.07;2.50;;;10.60;55.80;;;;;;4989890;28;20303;-69
2023/06/29 09:21:33;;;;;;;4.33;2.50;;;10.60;55.40;;;;;;4991220;28;20275;-69
2023/06/29 09:24:03;;;;;;;4.10;2.30;;;10.50;55.10;;;;;;4991714;28;20229;-67
2023/06/29 09:26:31;;;;;;;3.20;2.50;;;10.60;54.50;;;;;;4989779;28;20189;-67
2023/06/29 09:29:03;;;;;;;4.13;2.33;;;10.60;54.90;;;;;;4990761;28;20189;-67
2023/06/29 09:31:35;;;;;;;3.97;2.57;;;10.50;54.40;;;;;;4988452;28;20193;-67
2023/06/29 09:34:22;;;;;;;3.70;2.33;;;10.50;54.40;;;;;;4990816;28;20182;-67
2023/06/29 09:36:50;;;;;;;3.30;2.10;;;10.40;54.30;;;;;;4990218;28;20610;-66
2023/06/29 09:39:18;;;;;;;6.00;2.23;;;10.50;54.70;;;;;;4987104;28;20651;-67
2023/06/29 09:41:50;;;;;;;4.03;1.70;;;10.40;54.90;;;;;;4987930;28;20203;-67
2023/06/29 09:44:20;;;;;;;2.00;1.80;;;10.30;54.80;;;;;;4986779;28;20560;-66
2023/06/29 09:46:48;;;;;;;4.40;2.23;;;10.30;54.50;;;;;;4988687;28;20181;-66
2023/06/29 09:49:18;;;;;;;2.37;1.90;;;10.30;55.00;;;;;;4987802;28;20192;-67
2023/06/29 09:51:48;;;;;;;4.10;1.93;;;10.20;54.80;;;;;;4988404;28;20177;-66
2023/06/29 09:54:19;;;;;;;2.93;2.00;;;10.20;55.80;;;;;;4987240;28;20190;-67
2023/06/29 09:56:47;;;;;;;3.43;2.37;;;10.20;55.70;;;;;;4991181;28;20193;-67
2023/06/29 09:59:16;;;;;;;3.90;2.17;;;10.10;55.70;;;;;;4988379;28;20184;-67
2023/06/29 10:01:43;;;;;;;3.30;2.03;;;10.10;56.80;;;;;;4990841;28;20206;-66
2023/06/29 10:04:11;;;;;;;2.80;1.90;;;10.00;56.10;;;;;;4990689;28;20304;-67
2023/06/29 10:06:48;;;;;;;2.77;1.70;;;10.00;56.40;;;;;;4988948;28;20552;-67
2023/06/29 10:09:19;;;;;;;3.67;1.90;;;10.00;56.50;;;;;;4990153;28;20238;-68
2023/06/29 10:11:53;;;;;;;2.77;1.80;;;9.90;56.60;;;;;;4990402;28;20192;-69
2023/06/29 10:14:22;;;;;;;4.07;2.23;;;9.90;56.20;;;;;;4989753;28;20184;-67
2023/06/29 10:16:55;;;;;;;2.97;1.97;;;9.90;56.30;;;;;;4990000;28;20199;-68
2023/06/29 10:19:23;;;;;;;3.03;2.00;;;9.90;55.90;;;;;;4990686;28;20234;-67
2023/06/29 10:22:11;;;;;;;4.37;2.10;;;9.80;56.50;;;;;;4990281;28;20487;-67
2023/06/29 10:24:51;;;;;;;2.23;1.67;;;9.80;56.50;;;;;;4991873;28;20609;-67
2023/06/29 10:27:21;;;;;;;3.20;2.30;;;9.80;57.20;;;;;;4987907;28;20239;-67
2023/06/29 10:29:50;;;;;;;4.83;2.03;;;9.70;57.40;;;;;;4987735;28;20236;-68
2023/06/29 10:32:30;;;;;;;7.17;2.80;;;9.70;57.20;;;;;;4990538;28;20228;-68
2023/06/29 10:35:11;;;;;;;1.97;1.87;;;9.70;57.70;;;;;;4989901;28;20276;-68
2023/06/29 10:37:39;;;;;;;2.97;2.10;;;9.70;57.40;;;;;;4985094;28;20203;-67
2023/06/29 10:40:19;;;;;;;3.27;2.10;;;9.70;57.30;;;;;;4990867;28;20538;-67
2023/06/29 10:42:51;;;;;;;2.97;2.60;;;9.60;57.20;;;;;;4987984;28;20208;-67
2023/06/29 10:45:18;;;;;;;2.73;2.00;;;9.60;57.60;;;;;;4988477;28;20326;-67
2023/06/29 10:48:06;;;;;;;3.07;2.13;;;9.60;57.20;;;;;;4990346;28;20192;-66
2023/06/29 10:50:53;;;;;;;6.00;2.13;;;9.50;58.10;;;;;;4991103;28;20190;-69
2023/06/29 10:53:21;;;;;;;3.50;2.30;;;9.50;57.70;;;;;;4987968;28;20289;-66
2023/06/29 10:55:56;;;;;;;4.27;2.10;;;9.50;58.30;;;;;;4987011;28;20203;-66
2023/06/29 10:58:25;;;;;;;3.73;2.20;;;9.40;58.40;;;;;;4987302;28;20406;-66
2023/06/29 11:00:54;;;;;;;3.00;2.10;;;9.40;58.50;;;;;;4990028;28;20273;-67
2023/06/29 11:03:23;;;;;;;2.97;1.97;;;9.40;59.20;;;;;;4987941;28;20576;-67
2023/06/29 11:05:52;;;;;;;2.90;2.13;;;9.30;58.30;;;;;;4985295;28;20224;-66
2023/06/29 11:08:24;;;;;;;2.63;2.00;;;9.20;59.20;;;;;;4988793;28;20193;-66
2023/06/29 11:10:53;;;;;;;7.20;2.27;;;9.20;59.30;;;;;;4987956;28;20186;-66
2023/06/29 11:13:21;;;;;;;3.53;2.30;;;9.20;59.60;;;;;;4990622;28;20258;-66
2023/06/29 11:15:57;;;;;;;2.83;2.27;;;9.10;59.90;;;;;;4987807;28;20812;-67
2023/06/29 11:18:24;;;;;;;3.57;2.13;;;9.10;59.20;;;;;;4989849;28;20188;-67
2023/06/29 11:20:52;;;;;;;5.60;1.90;;;9.10;59.80;;;;;;4991576;28;20189;-67
2023/06/29 11:23:19;;;;;;;2.60;1.60;;;9.10;59.20;;;;;;4976834;28;20686;-68
2023/06/29 11:25:46;;;;;;;2.43;1.80;;;9.00;59.30;;;;;;4994151;28;20215;-67
2023/06/29 11:28:17;;;;;;;2.73;1.93;;;9.00;59.40;;;;;;4993395;28;20287;-67
2023/06/29 11:30:44;;;;;;;3.50;1.80;;;9.00;59.10;;;;;;4990957;28;20622;-67
2023/06/29 11:33:12;;;;;;;2.77;2.00;;;9.00;59.30;;;;;;4993383;28;20195;-67
2023/06/29 11:35:43;;;;;;;2.23;1.80;;;9.00;59.70;;;;;;4990936;28;20190;-67
2023/06/29 11:38:11;;;;;;;2.73;1.60;;;8.90;59.20;;;;;;4990759;28;20524;-67
2023/06/29 11:40:38;;;;;;;2.87;2.00;;;8.90;59.30;;;;;;4989638;28;20596;-68
2023/06/29 11:43:05;;;;;;;4.33;1.97;;;9.00;59.00;;;;;;4991956;28;20211;-68
2023/06/29 11:45:33;;;;;;;2.80;1.70;;;9.00;58.50;;;;;;4993394;28;20212;-67
2023/06/29 11:48:01;;;;;;;3.77;1.93;;;9.10;58.30;;;;;;4987595;28;20272;-67
2023/06/29 11:50:30;;;;;;;2.30;1.70;;;9.00;58.80;;;;;;4990831;28;20189;-67
2023/06/29 11:52:58;;;;;;;3.73;1.73;;;9.10;58.40;;;;;;4989028;28;20189;-68
2023/06/29 11:55:26;;;;;;;6.90;2.20;;;9.10;57.80;;;;;;4991339;28;20191;-67
2023/06/29 11:57:55;;;;;;;2.93;1.70;;;9.20;58.00;;;;;;4991958;28;20214;-67
2023/06/29 12:00:22;;;;;;;2.07;1.60;;;9.10;58.40;;;;;;4992125;28;20188;-68
2023/06/29 12:02:50;;;;;;;2.23;1.57;;;9.10;58.10;;;;;;4990876;28;20219;-68
2023/06/29 12:05:17;;;;;;;3.23;1.73;;;9.10;57.80;;;;;;4990902;28;20188;-67
2023/06/29 12:07:46;;;;;;;3.87;2.00;;;9.10;58.20;;;;;;4988343;28;20611;-67
2023/06/29 12:10:22;;;;;;;3.73;1.90;;;9.00;58.10;;;;;;4992087;28;20631;-67
2023/06/29 12:12:55;;;;;;;3.20;1.90;;;9.00;58.60;;;;;;4990591;28;20197;-67
2023/06/29 12:15:34;;;;;;;7.30;2.30;;;8.90;59.00;;;;;;4992194;28;20228;-66
2023/06/29 12:18:15;;;;;;;4.70;2.50;;;8.90;58.70;;;;;;4991637;28;20526;-67
2023/06/29 12:20:45;;;;;;;3.77;2.57;;;8.90;59.30;;;;;;4989714;28;20192;-66
2023/06/29 12:23:14;;;;;;;3.27;2.03;;;8.90;59.80;;;;;;4991176;28;20247;-67
2023/06/29 12:25:47;;;;;;;4.13;2.23;;;8.80;59.80;;;;;;4991266;28;20284;-67
2023/06/29 12:28:15;;;;;;;5.63;2.30;;;8.70;60.80;;;;;;4989304;28;20205;-66
2023/06/29 12:30:43;;;;;;;3.30;2.10;;;8.70;61.10;;;;;;4992224;28;20206;-67
2023/06/29 12:33:12;;;;;;;2.23;1.93;;;8.60;61.80;;;;;;4989590;28;20250;-66
2023/06/29 12:35:41;;;;;;;4.27;2.30;;;8.60;62.50;;;;;;4989374;28;20283;-66
2023/06/29 12:38:09;;;;;;;6.30;2.50;;;8.50;62.90;;;;;;4992087;28;20269;-66
2023/06/29 12:40:37;;;;;;;3.27;2.20;;;8.40;63.70;;;;;;4989802;28;20270;-67
2023/06/29 12:43:05;;;;;;;4.80;2.30;;;8.30;64.10;;;;;;4989621;28;20233;-66
2023/06/29 12:45:32;;;;;;;7.10;2.50;;;8.30;64.30;;;;;;4990091;28;20183;-66
2023/06/29 12:47:59;;;;;;;5.07;2.20;;;8.20;64.60;;;;;;4992093;28;20202;-66
2023/06/29 12:50:27;;;;;;;5.43;2.50;;;8.20;64.30;;;;;;4990895;28;20235;-65
2023/06/29 12:52:54;;;;;;;7.00;2.33;;;8.10;64.60;;;;;;4987173;28;20277;-65
2023/06/29 12:55:21;;;;;;;5.73;2.20;;;8.10;64.90;;;;;;4990635;28;20184;-66